ADF weather

Adıyaman Airport
Adıyaman, Adıyaman Province, Turkey

Public forecast

Using degrees Celsius for public forecast. Weather courtesy of forecast.io.

METAR (pilot weather report)

Report is more than 2 hours old.

Retrieved 2019/09/18 12:50 UTC (4 hours ago):

LTCP 181250Z 23005KT 180V290 CAVOK 31/06 Q1016

TAF (pilot weather forecast)

Closest forecast is Şanlıurfa GAP Airport, 26.6 nm (49.2 km) SE. Retrieved 2019/09/18 12:00 UTC (5 hours ago):

TAF LTCS 181040Z 1812/1912 VRB02KT CAVOK